sensor_id;sensor_type;location;lat;lon;timestamp;P1;durP1;ratioP1;P2;durP2;ratioP2
31018;SDS011;17689;45.610;5.858;2022-08-14T00:00:07;2.57;;;1.93;;
31018;SDS011;17689;45.610;5.858;2022-08-14T00:02:33;4.23;;;1.90;;
31018;SDS011;17689;45.610;5.858;2022-08-14T00:05:00;3.20;;;2.00;;
31018;SDS011;17689;45.610;5.858;2022-08-14T00:07:26;3.53;;;1.90;;
31018;SDS011;17689;45.610;5.858;2022-08-14T00:09:52;2.20;;;2.00;;
31018;SDS011;17689;45.610;5.858;2022-08-14T00:12:18;3.83;;;2.27;;
31018;SDS011;17689;45.610;5.858;2022-08-14T00:14:45;2.00;;;1.80;;
31018;SDS011;17689;45.610;5.858;2022-08-14T00:17:11;2.73;;;1.80;;
31018;SDS011;17689;45.610;5.858;2022-08-14T00:19:37;3.50;;;1.90;;
31018;SDS011;17689;45.610;5.858;2022-08-14T00:22:03;1.80;;;1.70;;
31018;SDS011;17689;45.610;5.858;2022-08-14T00:24:29;4.60;;;2.10;;
31018;SDS011;17689;45.610;5.858;2022-08-14T00:26:56;2.70;;;1.97;;
31018;SDS011;17689;45.610;5.858;2022-08-14T00:29:23;4.00;;;2.17;;
31018;SDS011;17689;45.610;5.858;2022-08-14T00:31:49;3.33;;;1.90;;
31018;SDS011;17689;45.610;5.858;2022-08-14T00:34:15;2.40;;;2.07;;
31018;SDS011;17689;45.610;5.858;2022-08-14T00:36:41;3.57;;;1.93;;
31018;SDS011;17689;45.610;5.858;2022-08-14T00:39:10;2.60;;;2.10;;
31018;SDS011;17689;45.610;5.858;2022-08-14T00:41:36;2.80;;;2.03;;
31018;SDS011;17689;45.610;5.858;2022-08-14T00:44:02;2.60;;;2.07;;
31018;SDS011;17689;45.610;5.858;2022-08-14T00:46:29;4.30;;;2.17;;
31018;SDS011;17689;45.610;5.858;2022-08-14T00:48:55;3.20;;;2.17;;
31018;SDS011;17689;45.610;5.858;2022-08-14T00:51:21;2.10;;;1.90;;
31018;SDS011;17689;45.610;5.858;2022-08-14T00:53:47;2.33;;;2.13;;
31018;SDS011;17689;45.610;5.858;2022-08-14T00:56:15;2.17;;;1.97;;
31018;SDS011;17689;45.610;5.858;2022-08-14T00:58:42;2.47;;;1.80;;
31018;SDS011;17689;45.610;5.858;2022-08-14T01:01:10;4.73;;;2.20;;
31018;SDS011;17689;45.610;5.858;2022-08-14T01:03:38;2.23;;;2.03;;
31018;SDS011;17689;45.610;5.858;2022-08-14T01:06:06;2.37;;;2.10;;
31018;SDS011;17689;45.610;5.858;2022-08-14T01:08:33;2.43;;;2.10;;
31018;SDS011;17689;45.610;5.858;2022-08-14T01:10:59;2.37;;;1.97;;
31018;SDS011;17689;45.610;5.858;2022-08-14T01:13:27;3.77;;;2.10;;
31018;SDS011;17689;45.610;5.858;2022-08-14T01:15:55;2.70;;;2.30;;
31018;SDS011;17689;45.610;5.858;2022-08-14T01:18:21;2.73;;;2.20;;
31018;SDS011;17689;45.610;5.858;2022-08-14T01:21:07;4.30;;;2.23;;
31018;SDS011;17689;45.610;5.858;2022-08-14T01:23:40;2.90;;;2.17;;
31018;SDS011;17689;45.610;5.858;2022-08-14T01:26:07;2.77;;;2.13;;
31018;SDS011;17689;45.610;5.858;2022-08-14T01:28:33;4.37;;;2.17;;
31018;SDS011;17689;45.610;5.858;2022-08-14T01:31:02;2.67;;;2.10;;
31018;SDS011;17689;45.610;5.858;2022-08-14T01:33:30;3.47;;;2.20;;
31018;SDS011;17689;45.610;5.858;2022-08-14T01:35:57;2.33;;;2.00;;
31018;SDS011;17689;45.610;5.858;2022-08-14T01:38:25;2.83;;;2.13;;
31018;SDS011;17689;45.610;5.858;2022-08-14T01:41:04;3.90;;;2.27;;
31018;SDS011;17689;45.610;5.858;2022-08-14T01:43:32;2.30;;;2.10;;
31018;SDS011;17689;45.610;5.858;2022-08-14T01:46:02;2.80;;;2.43;;
31018;SDS011;17689;45.610;5.858;2022-08-14T01:48:35;3.37;;;2.20;;
31018;SDS011;17689;45.610;5.858;2022-08-14T01:51:01;4.90;;;2.07;;
31018;SDS011;17689;45.610;5.858;2022-08-14T01:53:27;2.33;;;2.03;;
31018;SDS011;17689;45.610;5.858;2022-08-14T01:55:59;2.63;;;2.43;;
31018;SDS011;17689;45.610;5.858;2022-08-14T01:58:27;3.37;;;2.20;;
31018;SDS011;17689;45.610;5.858;2022-08-14T02:00:54;2.60;;;2.40;;
31018;SDS011;17689;45.610;5.858;2022-08-14T02:03:21;3.77;;;2.00;;
31018;SDS011;17689;45.610;5.858;2022-08-14T02:05:47;2.20;;;2.00;;
31018;SDS011;17689;45.610;5.858;2022-08-14T02:08:14;3.50;;;2.27;;
31018;SDS011;17689;45.610;5.858;2022-08-14T02:10:41;3.10;;;2.07;;
31018;SDS011;17689;45.610;5.858;2022-08-14T02:13:08;2.40;;;2.20;;
31018;SDS011;17689;45.610;5.858;2022-08-14T02:15:35;2.90;;;2.20;;
31018;SDS011;17689;45.610;5.858;2022-08-14T02:18:05;3.83;;;2.20;;
31018;SDS011;17689;45.610;5.858;2022-08-14T02:20:31;3.30;;;2.03;;
31018;SDS011;17689;45.610;5.858;2022-08-14T02:22:59;2.53;;;2.03;;
31018;SDS011;17689;45.610;5.858;2022-08-14T02:25:25;2.97;;;2.10;;
31018;SDS011;17689;45.610;5.858;2022-08-14T02:27:51;3.20;;;2.27;;
31018;SDS011;17689;45.610;5.858;2022-08-14T02:30:22;3.40;;;2.00;;
31018;SDS011;17689;45.610;5.858;2022-08-14T02:32:50;3.53;;;2.10;;
31018;SDS011;17689;45.610;5.858;2022-08-14T02:35:16;3.63;;;2.20;;
31018;SDS011;17689;45.610;5.858;2022-08-14T02:37:43;5.13;;;2.10;;
31018;SDS011;17689;45.610;5.858;2022-08-14T02:40:10;2.50;;;2.20;;
31018;SDS011;17689;45.610;5.858;2022-08-14T02:42:36;4.30;;;2.20;;
31018;SDS011;17689;45.610;5.858;2022-08-14T02:45:03;4.23;;;2.30;;
31018;SDS011;17689;45.610;5.858;2022-08-14T02:47:30;2.20;;;2.00;;
31018;SDS011;17689;45.610;5.858;2022-08-14T02:49:58;2.33;;;2.00;;
31018;SDS011;17689;45.610;5.858;2022-08-14T02:52:25;2.67;;;1.93;;
31018;SDS011;17689;45.610;5.858;2022-08-14T02:54:51;3.43;;;2.10;;
31018;SDS011;17689;45.610;5.858;2022-08-14T02:57:18;2.53;;;2.10;;
31018;SDS011;17689;45.610;5.858;2022-08-14T02:59:46;2.17;;;1.97;;
31018;SDS011;17689;45.610;5.858;2022-08-14T03:02:13;3.37;;;2.30;;
31018;SDS011;17689;45.610;5.858;2022-08-14T03:04:40;2.43;;;2.00;;
31018;SDS011;17689;45.610;5.858;2022-08-14T03:07:07;3.00;;;2.13;;
31018;SDS011;17689;45.610;5.858;2022-08-14T03:09:36;2.47;;;2.10;;
31018;SDS011;17689;45.610;5.858;2022-08-14T03:12:04;2.93;;;2.20;;
31018;SDS011;17689;45.610;5.858;2022-08-14T03:14:30;2.37;;;2.13;;
31018;SDS011;17689;45.610;5.858;2022-08-14T03:17:00;2.50;;;2.30;;
31018;SDS011;17689;45.610;5.858;2022-08-14T03:19:27;2.30;;;2.10;;
31018;SDS011;17689;45.610;5.858;2022-08-14T03:21:53;3.20;;;2.10;;
31018;SDS011;17689;45.610;5.858;2022-08-14T03:24:19;3.07;;;2.07;;
31018;SDS011;17689;45.610;5.858;2022-08-14T03:26:48;2.10;;;1.90;;
31018;SDS011;17689;45.610;5.858;2022-08-14T03:29:16;3.40;;;2.10;;
31018;SDS011;17689;45.610;5.858;2022-08-14T03:31:44;3.43;;;2.13;;
31018;SDS011;17689;45.610;5.858;2022-08-14T03:34:12;3.00;;;2.10;;
31018;SDS011;17689;45.610;5.858;2022-08-14T03:36:38;2.53;;;2.20;;
31018;SDS011;17689;45.610;5.858;2022-08-14T03:39:07;4.23;;;2.30;;
31018;SDS011;17689;45.610;5.858;2022-08-14T03:41:33;4.20;;;2.20;;
31018;SDS011;17689;45.610;5.858;2022-08-14T03:44:01;2.63;;;2.00;;
31018;SDS011;17689;45.610;5.858;2022-08-14T03:46:29;2.20;;;2.10;;
31018;SDS011;17689;45.610;5.858;2022-08-14T03:48:55;2.53;;;2.10;;
31018;SDS011;17689;45.610;5.858;2022-08-14T03:51:22;2.27;;;1.87;;
31018;SDS011;17689;45.610;5.858;2022-08-14T03:53:53;3.40;;;1.90;;
31018;SDS011;17689;45.610;5.858;2022-08-14T03:56:19;2.50;;;2.30;;
31018;SDS011;17689;45.610;5.858;2022-08-14T03:58:47;3.43;;;2.10;;
31018;SDS011;17689;45.610;5.858;2022-08-14T04:01:14;2.33;;;2.13;;
31018;SDS011;17689;45.610;5.858;2022-08-14T04:03:43;3.43;;;2.20;;
31018;SDS011;17689;45.610;5.858;2022-08-14T04:06:09;3.53;;;2.00;;
31018;SDS011;17689;45.610;5.858;2022-08-14T04:08:36;2.30;;;2.10;;
31018;SDS011;17689;45.610;5.858;2022-08-14T04:11:03;2.43;;;2.20;;
31018;SDS011;17689;45.610;5.858;2022-08-14T04:13:30;2.40;;;2.00;;
31018;SDS011;17689;45.610;5.858;2022-08-14T04:15:56;3.93;;;2.03;;
31018;SDS011;17689;45.610;5.858;2022-08-14T04:18:23;2.93;;;2.17;;
31018;SDS011;17689;45.610;5.858;2022-08-14T04:20:49;3.80;;;2.20;;
31018;SDS011;17689;45.610;5.858;2022-08-14T04:23:15;4.10;;;2.20;;
31018;SDS011;17689;45.610;5.858;2022-08-14T04:25:41;2.80;;;2.30;;
31018;SDS011;17689;45.610;5.858;2022-08-14T04:28:08;2.70;;;2.07;;
31018;SDS011;17689;45.610;5.858;2022-08-14T04:30:36;2.80;;;2.00;;
31018;SDS011;17689;45.610;5.858;2022-08-14T04:33:03;3.10;;;2.10;;
31018;SDS011;17689;45.610;5.858;2022-08-14T04:35:29;5.73;;;2.20;;
31018;SDS011;17689;45.610;5.858;2022-08-14T04:37:56;4.93;;;2.30;;
31018;SDS011;17689;45.610;5.858;2022-08-14T04:40:40;3.67;;;2.00;;
31018;SDS011;17689;45.610;5.858;2022-08-14T04:43:25;2.83;;;2.00;;
31018;SDS011;17689;45.610;5.858;2022-08-14T04:46:03;6.23;;;2.10;;
31018;SDS011;17689;45.610;5.858;2022-08-14T04:48:30;5.70;;;2.00;;
31018;SDS011;17689;45.610;5.858;2022-08-14T04:50:56;3.63;;;2.03;;
31018;SDS011;17689;45.610;5.858;2022-08-14T04:53:24;3.40;;;2.27;;
31018;SDS011;17689;45.610;5.858;2022-08-14T04:55:51;3.43;;;2.30;;
31018;SDS011;17689;45.610;5.858;2022-08-14T04:58:18;2.10;;;1.90;;
31018;SDS011;17689;45.610;5.858;2022-08-14T05:00:46;3.00;;;2.20;;
31018;SDS011;17689;45.610;5.858;2022-08-14T05:03:15;3.63;;;2.20;;
31018;SDS011;17689;45.610;5.858;2022-08-14T05:05:41;3.40;;;2.23;;
31018;SDS011;17689;45.610;5.858;2022-08-14T05:08:08;2.77;;;2.20;;
31018;SDS011;17689;45.610;5.858;2022-08-14T05:10:42;3.00;;;2.03;;
31018;SDS011;17689;45.610;5.858;2022-08-14T05:13:08;2.57;;;2.00;;
31018;SDS011;17689;45.610;5.858;2022-08-14T05:15:36;2.43;;;2.23;;
31018;SDS011;17689;45.610;5.858;2022-08-14T05:18:07;2.30;;;2.10;;
31018;SDS011;17689;45.610;5.858;2022-08-14T05:20:44;4.37;;;2.20;;
31018;SDS011;17689;45.610;5.858;2022-08-14T05:23:11;4.77;;;2.03;;
31018;SDS011;17689;45.610;5.858;2022-08-14T05:25:38;7.07;;;2.27;;
31018;SDS011;17689;45.610;5.858;2022-08-14T05:28:05;2.37;;;2.00;;
31018;SDS011;17689;45.610;5.858;2022-08-14T05:30:31;2.47;;;1.93;;
31018;SDS011;17689;45.610;5.858;2022-08-14T05:32:58;2.23;;;2.03;;
31018;SDS011;17689;45.610;5.858;2022-08-14T05:35:25;7.07;;;2.33;;
31018;SDS011;17689;45.610;5.858;2022-08-14T05:37:51;4.77;;;2.30;;
31018;SDS011;17689;45.610;5.858;2022-08-14T05:40:18;3.07;;;2.40;;
31018;SDS011;17689;45.610;5.858;2022-08-14T05:42:44;5.17;;;2.40;;
31018;SDS011;17689;45.610;5.858;2022-08-14T05:45:10;5.63;;;2.53;;
31018;SDS011;17689;45.610;5.858;2022-08-14T05:47:41;6.77;;;2.60;;
31018;SDS011;17689;45.610;5.858;2022-08-14T05:50:11;4.37;;;2.20;;
31018;SDS011;17689;45.610;5.858;2022-08-14T05:52:37;4.17;;;2.50;;
31018;SDS011;17689;45.610;5.858;2022-08-14T05:55:08;2.93;;;2.13;;
31018;SDS011;17689;45.610;5.858;2022-08-14T05:58:20;5.40;;;2.30;;
31018;SDS011;17689;45.610;5.858;2022-08-14T06:00:22;4.80;;;2.53;;
31018;SDS011;17689;45.610;5.858;2022-08-14T06:02:49;3.30;;;2.83;;
31018;SDS011;17689;45.610;5.858;2022-08-14T06:05:15;6.23;;;2.53;;
31018;SDS011;17689;45.610;5.858;2022-08-14T06:07:41;4.73;;;2.27;;
31018;SDS011;17689;45.610;5.858;2022-08-14T06:10:08;3.07;;;2.40;;
31018;SDS011;17689;45.610;5.858;2022-08-14T06:12:35;3.97;;;2.50;;
31018;SDS011;17689;45.610;5.858;2022-08-14T06:15:03;4.33;;;2.30;;
31018;SDS011;17689;45.610;5.858;2022-08-14T06:17:30;3.67;;;2.30;;
31018;SDS011;17689;45.610;5.858;2022-08-14T06:19:56;5.50;;;2.40;;
31018;SDS011;17689;45.610;5.858;2022-08-14T06:22:22;8.30;;;2.83;;
31018;SDS011;17689;45.610;5.858;2022-08-14T06:24:48;15.40;;;3.53;;
31018;SDS011;17689;45.610;5.858;2022-08-14T06:27:14;17.10;;;5.50;;
31018;SDS011;17689;45.610;5.858;2022-08-14T06:29:40;9.13;;;4.00;;
31018;SDS011;17689;45.610;5.858;2022-08-14T06:32:07;14.97;;;4.70;;
31018;SDS011;17689;45.610;5.858;2022-08-14T06:34:33;8.10;;;2.97;;
31018;SDS011;17689;45.610;5.858;2022-08-14T06:37:03;6.80;;;3.50;;
31018;SDS011;17689;45.610;5.858;2022-08-14T06:39:29;5.80;;;4.03;;
31018;SDS011;17689;45.610;5.858;2022-08-14T06:41:58;5.60;;;4.40;;
31018;SDS011;17689;45.610;5.858;2022-08-14T06:44:24;6.23;;;4.20;;
31018;SDS011;17689;45.610;5.858;2022-08-14T06:46:51;5.53;;;4.37;;
31018;SDS011;17689;45.610;5.858;2022-08-14T06:49:17;6.70;;;3.90;;
31018;SDS011;17689;45.610;5.858;2022-08-14T06:51:43;4.83;;;3.43;;
31018;SDS011;17689;45.610;5.858;2022-08-14T06:54:11;11.57;;;4.07;;
31018;SDS011;17689;45.610;5.858;2022-08-14T06:56:38;4.93;;;3.33;;
31018;SDS011;17689;45.610;5.858;2022-08-14T06:59:04;6.33;;;3.50;;
31018;SDS011;17689;45.610;5.858;2022-08-14T07:01:30;5.13;;;3.83;;
31018;SDS011;17689;45.610;5.858;2022-08-14T07:04:15;8.17;;;4.27;;
31018;SDS011;17689;45.610;5.858;2022-08-14T07:07:00;6.77;;;4.40;;
31018;SDS011;17689;45.610;5.858;2022-08-14T07:09:27;5.40;;;4.57;;
31018;SDS011;17689;45.610;5.858;2022-08-14T07:11:53;14.60;;;13.07;;
31018;SDS011;17689;45.610;5.858;2022-08-14T07:14:19;12.47;;;9.33;;
31018;SDS011;17689;45.610;5.858;2022-08-14T07:16:45;9.07;;;6.90;;
31018;SDS011;17689;45.610;5.858;2022-08-14T07:19:12;8.67;;;5.60;;
31018;SDS011;17689;45.610;5.858;2022-08-14T07:21:41;9.17;;;6.17;;
31018;SDS011;17689;45.610;5.858;2022-08-14T07:24:07;8.60;;;5.17;;
31018;SDS011;17689;45.610;5.858;2022-08-14T07:26:33;5.40;;;4.87;;
31018;SDS011;17689;45.610;5.858;2022-08-14T07:29:00;7.90;;;5.37;;
31018;SDS011;17689;45.610;5.858;2022-08-14T07:31:26;7.23;;;5.63;;
31018;SDS011;17689;45.610;5.858;2022-08-14T07:33:52;8.47;;;6.07;;
31018;SDS011;17689;45.610;5.858;2022-08-14T07:36:20;8.80;;;5.30;;
31018;SDS011;17689;45.610;5.858;2022-08-14T07:38:46;10.27;;;6.57;;
31018;SDS011;17689;45.610;5.858;2022-08-14T07:41:12;13.13;;;7.17;;
31018;SDS011;17689;45.610;5.858;2022-08-14T07:43:39;10.80;;;6.70;;
31018;SDS011;17689;45.610;5.858;2022-08-14T07:46:05;10.17;;;6.73;;
31018;SDS011;17689;45.610;5.858;2022-08-14T07:48:36;9.77;;;6.73;;
31018;SDS011;17689;45.610;5.858;2022-08-14T07:51:02;9.83;;;6.57;;
31018;SDS011;17689;45.610;5.858;2022-08-14T07:53:28;11.17;;;6.97;;
31018;SDS011;17689;45.610;5.858;2022-08-14T07:55:55;14.43;;;7.57;;
31018;SDS011;17689;45.610;5.858;2022-08-14T07:58:21;8.10;;;6.27;;
31018;SDS011;17689;45.610;5.858;2022-08-14T08:00:47;5.73;;;4.90;;
31018;SDS011;17689;45.610;5.858;2022-08-14T08:03:14;10.37;;;6.70;;
31018;SDS011;17689;45.610;5.858;2022-08-14T08:05:41;18.60;;;7.80;;
31018;SDS011;17689;45.610;5.858;2022-08-14T08:08:11;23.73;;;11.03;;
31018;SDS011;17689;45.610;5.858;2022-08-14T08:10:37;12.90;;;7.17;;
31018;SDS011;17689;45.610;5.858;2022-08-14T08:13:13;12.37;;;7.63;;
31018;SDS011;17689;45.610;5.858;2022-08-14T08:15:44;8.83;;;7.03;;
31018;SDS011;17689;45.610;5.858;2022-08-14T08:18:12;12.03;;;7.27;;
31018;SDS011;17689;45.610;5.858;2022-08-14T08:20:43;12.63;;;7.30;;
31018;SDS011;17689;45.610;5.858;2022-08-14T08:23:13;9.40;;;7.37;;
31018;SDS011;17689;45.610;5.858;2022-08-14T08:25:40;8.40;;;7.50;;
31018;SDS011;17689;45.610;5.858;2022-08-14T08:28:08;13.13;;;6.80;;
31018;SDS011;17689;45.610;5.858;2022-08-14T08:30:38;11.73;;;7.50;;
31018;SDS011;17689;45.610;5.858;2022-08-14T08:33:05;8.77;;;6.00;;
31018;SDS011;17689;45.610;5.858;2022-08-14T08:35:32;7.23;;;5.90;;
31018;SDS011;17689;45.610;5.858;2022-08-14T08:38:03;7.37;;;5.90;;
31018;SDS011;17689;45.610;5.858;2022-08-14T08:40:31;8.33;;;5.73;;
31018;SDS011;17689;45.610;5.858;2022-08-14T08:43:04;6.27;;;5.03;;
31018;SDS011;17689;45.610;5.858;2022-08-14T08:45:32;9.73;;;6.20;;
31018;SDS011;17689;45.610;5.858;2022-08-14T08:47:59;10.77;;;6.97;;
31018;SDS011;17689;45.610;5.858;2022-08-14T08:50:28;9.77;;;7.53;;
31018;SDS011;17689;45.610;5.858;2022-08-14T08:52:56;11.53;;;7.30;;
31018;SDS011;17689;45.610;5.858;2022-08-14T08:55:25;7.27;;;6.00;;
31018;SDS011;17689;45.610;5.858;2022-08-14T08:57:55;8.20;;;6.10;;
31018;SDS011;17689;45.610;5.858;2022-08-14T09:00:22;11.80;;;6.07;;
31018;SDS011;17689;45.610;5.858;2022-08-14T09:02:58;8.37;;;5.83;;
31018;SDS011;17689;45.610;5.858;2022-08-14T09:05:27;10.87;;;6.30;;
31018;SDS011;17689;45.610;5.858;2022-08-14T09:07:54;10.90;;;5.83;;
31018;SDS011;17689;45.610;5.858;2022-08-14T09:10:20;18.97;;;6.73;;
31018;SDS011;17689;45.610;5.858;2022-08-14T09:12:47;12.87;;;6.90;;
31018;SDS011;17689;45.610;5.858;2022-08-14T09:15:13;19.43;;;6.70;;
31018;SDS011;17689;45.610;5.858;2022-08-14T09:17:40;10.17;;;5.80;;
31018;SDS011;17689;45.610;5.858;2022-08-14T09:20:08;9.63;;;5.77;;
31018;SDS011;17689;45.610;5.858;2022-08-14T09:22:34;9.80;;;5.83;;
31018;SDS011;17689;45.610;5.858;2022-08-14T09:25:01;8.33;;;6.87;;
31018;SDS011;17689;45.610;5.858;2022-08-14T09:27:27;9.17;;;6.37;;
31018;SDS011;17689;45.610;5.858;2022-08-14T09:29:54;8.40;;;5.60;;
31018;SDS011;17689;45.610;5.858;2022-08-14T09:32:22;14.63;;;6.87;;
31018;SDS011;17689;45.610;5.858;2022-08-14T09:35:03;9.00;;;5.90;;
31018;SDS011;17689;45.610;5.858;2022-08-14T09:43:01;9.63;;;5.73;;
31018;SDS011;17689;45.610;5.858;2022-08-14T09:47:58;6.97;;;4.83;;
31018;SDS011;17689;45.610;5.858;2022-08-14T09:50:31;6.90;;;4.80;;
31018;SDS011;17689;45.610;5.858;2022-08-14T09:53:02;7.77;;;4.23;;
31018;SDS011;17689;45.610;5.858;2022-08-14T09:55:29;6.47;;;4.30;;
31018;SDS011;17689;45.610;5.858;2022-08-14T09:58:11;4.57;;;4.10;;
31018;SDS011;17689;45.610;5.858;2022-08-14T10:00:46;6.70;;;4.90;;
31018;SDS011;17689;45.610;5.858;2022-08-14T10:03:23;6.70;;;4.70;;
31018;SDS011;17689;45.610;5.858;2022-08-14T10:05:49;20.80;;;5.33;;
31018;SDS011;17689;45.610;5.858;2022-08-14T10:08:19;7.10;;;4.83;;
31018;SDS011;17689;45.610;5.858;2022-08-14T10:10:46;8.87;;;4.70;;
31018;SDS011;17689;45.610;5.858;2022-08-14T10:13:22;6.87;;;5.53;;
31018;SDS011;17689;45.610;5.858;2022-08-14T10:15:49;9.17;;;5.17;;
31018;SDS011;17689;45.610;5.858;2022-08-14T10:18:16;8.03;;;5.40;;
31018;SDS011;17689;45.610;5.858;2022-08-14T10:20:56;9.37;;;5.67;;
31018;SDS011;17689;45.610;5.858;2022-08-14T10:23:23;6.50;;;5.50;;
31018;SDS011;17689;45.610;5.858;2022-08-14T10:26:03;7.17;;;5.07;;
31018;SDS011;17689;45.610;5.858;2022-08-14T10:28:40;6.20;;;4.77;;
31018;SDS011;17689;45.610;5.858;2022-08-14T10:34:05;6.57;;;5.23;;
31018;SDS011;17689;45.610;5.858;2022-08-14T10:36:33;6.43;;;5.27;;
31018;SDS011;17689;45.610;5.858;2022-08-14T10:39:02;9.83;;;5.70;;
31018;SDS011;17689;45.610;5.858;2022-08-14T10:44:11;5.30;;;4.80;;
31018;SDS011;17689;45.610;5.858;2022-08-14T10:46:45;6.20;;;4.90;;
31018;SDS011;17689;45.610;5.858;2022-08-14T10:49:16;5.57;;;5.03;;
31018;SDS011;17689;45.610;5.858;2022-08-14T10:51:53;6.70;;;4.80;;
31018;SDS011;17689;45.610;5.858;2022-08-14T10:54:27;6.20;;;4.57;;
31018;SDS011;17689;45.610;5.858;2022-08-14T10:57:09;6.73;;;5.57;;
31018;SDS011;17689;45.610;5.858;2022-08-14T10:59:43;6.97;;;6.20;;
31018;SDS011;17689;45.610;5.858;2022-08-14T11:07:40;7.30;;;6.23;;
31018;SDS011;17689;45.610;5.858;2022-08-14T11:15:33;5.30;;;4.80;;
31018;SDS011;17689;45.610;5.858;2022-08-14T11:17:59;5.70;;;5.10;;
31018;SDS011;17689;45.610;5.858;2022-08-14T11:20:26;5.43;;;3.53;;
31018;SDS011;17689;45.610;5.858;2022-08-14T11:22:54;6.43;;;3.60;;
31018;SDS011;17689;45.610;5.858;2022-08-14T11:25:21;3.17;;;2.87;;
31018;SDS011;17689;45.610;5.858;2022-08-14T11:27:49;5.73;;;3.40;;
31018;SDS011;17689;45.610;5.858;2022-08-14T11:30:16;3.87;;;3.07;;
31018;SDS011;17689;45.610;5.858;2022-08-14T11:32:44;3.63;;;2.83;;
31018;SDS011;17689;45.610;5.858;2022-08-14T11:35:16;6.63;;;5.10;;
31018;SDS011;17689;45.610;5.858;2022-08-14T11:40:16;5.30;;;4.60;;
31018;SDS011;17689;45.610;5.858;2022-08-14T11:42:46;3.73;;;3.10;;
31018;SDS011;17689;45.610;5.858;2022-08-14T11:45:13;4.30;;;3.90;;
31018;SDS011;17689;45.610;5.858;2022-08-14T11:47:39;4.77;;;4.27;;
31018;SDS011;17689;45.610;5.858;2022-08-14T11:50:13;5.43;;;4.80;;
31018;SDS011;17689;45.610;5.858;2022-08-14T11:52:41;5.60;;;4.67;;
31018;SDS011;17689;45.610;5.858;2022-08-14T11:55:09;5.90;;;5.20;;
31018;SDS011;17689;45.610;5.858;2022-08-14T11:57:37;6.40;;;5.80;;
31018;SDS011;17689;45.610;5.858;2022-08-14T12:00:07;6.60;;;5.97;;
31018;SDS011;17689;45.610;5.858;2022-08-14T12:02:34;5.47;;;4.97;;
31018;SDS011;17689;45.610;5.858;2022-08-14T12:05:01;4.53;;;4.07;;
31018;SDS011;17689;45.610;5.858;2022-08-14T12:07:27;5.37;;;4.80;;
31018;SDS011;17689;45.610;5.858;2022-08-14T12:09:54;5.17;;;4.50;;
31018;SDS011;17689;45.610;5.858;2022-08-14T12:12:25;5.30;;;4.80;;
31018;SDS011;17689;45.610;5.858;2022-08-14T12:14:52;4.33;;;3.87;;
31018;SDS011;17689;45.610;5.858;2022-08-14T12:17:20;4.60;;;3.97;;
31018;SDS011;17689;45.610;5.858;2022-08-14T12:19:51;4.57;;;4.17;;
31018;SDS011;17689;45.610;5.858;2022-08-14T12:22:19;5.03;;;4.10;;
31018;SDS011;17689;45.610;5.858;2022-08-14T12:24:56;4.70;;;4.10;;
31018;SDS011;17689;45.610;5.858;2022-08-14T12:27:33;4.30;;;3.90;;
31018;SDS011;17689;45.610;5.858;2022-08-14T12:29:59;6.03;;;4.13;;
31018;SDS011;17689;45.610;5.858;2022-08-14T12:32:25;4.67;;;4.00;;
31018;SDS011;17689;45.610;5.858;2022-08-14T12:34:52;5.43;;;4.10;;
31018;SDS011;17689;45.610;5.858;2022-08-14T12:37:19;4.07;;;3.67;;
31018;SDS011;17689;45.610;5.858;2022-08-14T12:39:54;4.73;;;4.20;;
31018;SDS011;17689;45.610;5.858;2022-08-14T12:42:21;4.27;;;3.87;;
31018;SDS011;17689;45.610;5.858;2022-08-14T12:44:58;4.57;;;3.50;;
31018;SDS011;17689;45.610;5.858;2022-08-14T12:47:25;4.17;;;3.80;;
31018;SDS011;17689;45.610;5.858;2022-08-14T12:49:55;4.53;;;4.10;;
31018;SDS011;17689;45.610;5.858;2022-08-14T12:52:28;4.33;;;3.93;;
31018;SDS011;17689;45.610;5.858;2022-08-14T12:54:59;5.50;;;4.50;;
31018;SDS011;17689;45.610;5.858;2022-08-14T12:57:32;5.07;;;3.90;;
31018;SDS011;17689;45.610;5.858;2022-08-14T13:00:07;5.37;;;4.40;;
31018;SDS011;17689;45.610;5.858;2022-08-14T13:02:36;4.43;;;4.03;;
31018;SDS011;17689;45.610;5.858;2022-08-14T13:05:02;5.17;;;4.07;;
31018;SDS011;17689;45.610;5.858;2022-08-14T13:07:29;5.23;;;4.37;;
31018;SDS011;17689;45.610;5.858;2022-08-14T13:09:56;6.27;;;4.40;;
31018;SDS011;17689;45.610;5.858;2022-08-14T13:12:25;5.80;;;4.63;;
31018;SDS011;17689;45.610;5.858;2022-08-14T13:14:56;4.40;;;4.00;;
31018;SDS011;17689;45.610;5.858;2022-08-14T13:17:26;4.63;;;4.23;;
31018;SDS011;17689;45.610;5.858;2022-08-14T13:19:54;5.23;;;4.00;;
31018;SDS011;17689;45.610;5.858;2022-08-14T13:22:23;6.43;;;3.77;;
31018;SDS011;17689;45.610;5.858;2022-08-14T13:24:53;4.57;;;3.70;;
31018;SDS011;17689;45.610;5.858;2022-08-14T13:27:23;4.27;;;3.57;;
31018;SDS011;17689;45.610;5.858;2022-08-14T13:29:50;4.10;;;3.70;;
31018;SDS011;17689;45.610;5.858;2022-08-14T13:32:18;4.23;;;3.80;;
31018;SDS011;17689;45.610;5.858;2022-08-14T13:34:47;5.40;;;3.97;;
31018;SDS011;17689;45.610;5.858;2022-08-14T13:37:14;4.10;;;3.70;;
31018;SDS011;17689;45.610;5.858;2022-08-14T13:39:45;5.67;;;3.63;;
31018;SDS011;17689;45.610;5.858;2022-08-14T13:42:12;5.03;;;4.00;;
31018;SDS011;17689;45.610;5.858;2022-08-14T13:44:39;4.83;;;3.90;;
31018;SDS011;17689;45.610;5.858;2022-08-14T13:47:05;3.73;;;3.43;;
31018;SDS011;17689;45.610;5.858;2022-08-14T13:49:32;3.87;;;3.50;;
31018;SDS011;17689;45.610;5.858;2022-08-14T13:52:00;4.13;;;3.73;;
31018;SDS011;17689;45.610;5.858;2022-08-14T13:54:28;4.57;;;3.40;;
31018;SDS011;17689;45.610;5.858;2022-08-14T13:56:58;4.00;;;3.30;;
31018;SDS011;17689;45.610;5.858;2022-08-14T13:59:27;3.90;;;3.50;;
31018;SDS011;17689;45.610;5.858;2022-08-14T14:01:57;4.00;;;3.60;;
31018;SDS011;17689;45.610;5.858;2022-08-14T14:04:28;4.97;;;3.60;;
31018;SDS011;17689;45.610;5.858;2022-08-14T14:06:55;3.70;;;3.40;;
31018;SDS011;17689;45.610;5.858;2022-08-14T14:09:25;4.23;;;3.47;;
31018;SDS011;17689;45.610;5.858;2022-08-14T14:11:52;3.53;;;3.23;;
31018;SDS011;17689;45.610;5.858;2022-08-14T14:14:20;4.17;;;3.63;;
31018;SDS011;17689;45.610;5.858;2022-08-14T14:16:49;3.97;;;3.40;;
31018;SDS011;17689;45.610;5.858;2022-08-14T14:19:18;5.13;;;3.53;;
31018;SDS011;17689;45.610;5.858;2022-08-14T14:21:48;3.73;;;3.33;;
31018;SDS011;17689;45.610;5.858;2022-08-14T14:24:15;5.70;;;3.93;;
31018;SDS011;17689;45.610;5.858;2022-08-14T14:26:45;4.37;;;3.67;;
31018;SDS011;17689;45.610;5.858;2022-08-14T14:29:12;4.37;;;3.47;;
31018;SDS011;17689;45.610;5.858;2022-08-14T14:31:39;3.90;;;3.43;;
31018;SDS011;17689;45.610;5.858;2022-08-14T14:34:06;4.50;;;3.57;;
31018;SDS011;17689;45.610;5.858;2022-08-14T14:36:33;4.40;;;3.77;;
31018;SDS011;17689;45.610;5.858;2022-08-14T14:39:01;4.33;;;3.40;;
31018;SDS011;17689;45.610;5.858;2022-08-14T14:41:28;4.67;;;3.50;;
31018;SDS011;17689;45.610;5.858;2022-08-14T14:43:57;5.70;;;3.90;;
31018;SDS011;17689;45.610;5.858;2022-08-14T14:46:24;4.30;;;3.30;;
31018;SDS011;17689;45.610;5.858;2022-08-14T14:48:58;3.87;;;3.27;;
31018;SDS011;17689;45.610;5.858;2022-08-14T14:51:25;4.80;;;3.27;;
31018;SDS011;17689;45.610;5.858;2022-08-14T14:53:51;4.70;;;3.33;;
31018;SDS011;17689;45.610;5.858;2022-08-14T14:56:18;5.30;;;3.70;;
31018;SDS011;17689;45.610;5.858;2022-08-14T14:58:45;4.07;;;3.30;;
31018;SDS011;17689;45.610;5.858;2022-08-14T15:01:11;4.13;;;3.40;;
31018;SDS011;17689;45.610;5.858;2022-08-14T15:03:42;3.80;;;3.40;;
31018;SDS011;17689;45.610;5.858;2022-08-14T15:06:10;4.17;;;3.33;;
31018;SDS011;17689;45.610;5.858;2022-08-14T15:08:36;3.67;;;3.37;;
31018;SDS011;17689;45.610;5.858;2022-08-14T15:11:04;4.00;;;3.50;;
31018;SDS011;17689;45.610;5.858;2022-08-14T15:13:30;4.53;;;3.47;;
31018;SDS011;17689;45.610;5.858;2022-08-14T15:15:57;4.87;;;3.50;;
31018;SDS011;17689;45.610;5.858;2022-08-14T15:18:23;5.33;;;3.50;;